Terminal Aerodrome Forecast
Issued by NWS Denver/Boulder, CO

Home | Current Version | Previous Version | Text Only | Print | Product List | Glossary On
Versions: 1 2 3 4 5 6 7 8 9 10 11 12 13 14 15 16 17 18 19 20 21 22 23 24 25 26 27 28 29 30 31 32 33 34 35 36 37 38 39 40 41 42 43 44 45 46 47 48 49 50
000
FTUS45 KBOU 271120
TAFDEN
TAF
KDEN 271120Z 2712/2818 28006KT P6SM SCT015 OVC060
      TEMPO 2712/2715 BKN015
     FM271500 01012KT P6SM VCSH SCT025 BKN060
     FM271700 01012KT P6SM VCTS BKN030CB OVC050
      TEMPO 2718/2722 5SM SHRA BKN020
     FM272200 34010KT P6SM VCSH SCT030 BKN060 PROB30 2722/2724 -SHRA
      BKN030
     FM280100 32007KT P6SM BKN060
     FM280500 24006KT P6SM FEW060 SCT120
     FM281500 32007KT P6SM FEW120=

USA.gov is the U.S. government's official web portal to all federal, state and local government web resources and services.